createdAt,value
2023-05-05T00:01:23.047Z,78.06392839948192
2023-05-05T00:04:22.763Z,78.06044573168283
2023-05-05T00:07:19.199Z,78.64480263965093
2023-05-05T00:10:14.728Z,77.98246402791932
2023-05-05T00:13:11.455Z,78.96060789390357
2023-05-05T00:16:07.854Z,78.21517194198391
2023-05-05T00:19:06.410Z,79.19103730404031
2023-05-05T00:22:03.013Z,78.79206500743605
2023-05-05T00:24:58.511Z,79.28590816445575
2023-05-05T00:27:54.069Z,80.53730295990147
2023-05-05T00:30:50.729Z,80.01107050313415
2023-05-05T00:33:46.265Z,80.04158201469318
2023-05-05T00:36:41.762Z,79.91767942022425
2023-05-05T00:39:37.311Z,79.70022676913987
2023-05-05T00:42:37.872Z,80.94055595276274
2023-05-05T00:45:33.449Z,79.42613114605514
2023-05-05T00:48:32.003Z,79.47092149328336
2023-05-05T00:51:28.581Z,79.61452110066845
2023-05-05T00:54:26.105Z,79.77214361562963
2023-05-05T00:57:23.685Z,80.57619328000092
2023-05-05T01:00:23.212Z,80.34957524244683
2023-05-05T01:03:18.910Z,79.49438728525016
2023-05-05T01:06:26.308Z,78.77817461048679
2023-05-05T01:09:32.851Z,77.80815315626774
2023-05-05T01:12:37.434Z,77.72682941167868
2023-05-05T01:15:41.954Z,77.3326547880937
2023-05-05T01:18:45.422Z,78.2747338400956
2023-05-05T01:21:47.016Z,77.2136554214756
2023-05-05T01:24:54.556Z,76.82856970650678
2023-05-05T01:28:03.089Z,77.81428074399723
2023-05-05T01:31:14.622Z,77.4658661338437
2023-05-05T01:34:17.138Z,76.65880801523407
2023-05-05T01:37:18.658Z,76.97827239227891
2023-05-05T01:40:16.254Z,76.8785425564572
2023-05-05T01:43:17.804Z,76.45931070538082
2023-05-05T01:46:16.484Z,76.42048512920948
2023-05-05T01:49:13.893Z,76.85957731182012
2023-05-05T01:52:11.481Z,77.82680996341614
2023-05-05T01:55:08.030Z,78.00667926889058
2023-05-05T01:58:05.568Z,77.70985639936032
2023-05-05T02:01:02.274Z,77.35139718080487
2023-05-05T02:04:01.824Z,76.53656213657845
2023-05-05T02:07:01.231Z,77.01774345963148
2023-05-05T02:09:59.795Z,76.86662821699514
2023-05-05T02:12:56.439Z,77.11584117660836
2023-05-05T02:15:53.910Z,77.74451994874256
2023-05-05T02:18:51.459Z,76.35710068255305
2023-05-05T02:21:48.979Z,76.35161171323527
2023-05-05T02:24:44.575Z,77.78593521312249
2023-05-05T02:27:44.126Z,77.92916910566782
2023-05-05T02:30:43.797Z,77.3243801846207
2023-05-05T02:33:43.257Z,77.64756109525815
2023-05-05T02:36:44.798Z,76.62762508881839
2023-05-05T02:39:51.330Z,75.99525236243474
2023-05-05T02:42:52.903Z,77.6566816144412
2023-05-05T02:45:50.430Z,78.29062727989893
2023-05-05T02:48:46.007Z,77.94013954384613
2023-05-05T02:51:41.530Z,76.73340118777365
2023-05-05T02:54:37.128Z,76.63102409426513
2023-05-05T02:57:36.657Z,76.18343789039102
2023-05-05T03:00:41.194Z,76.10283565071752
2023-05-05T03:03:49.920Z,77.41908724588833
2023-05-05T03:06:51.295Z,79.32156577735833
2023-05-05T03:09:54.820Z,79.83207151631619
2023-05-05T03:12:54.354Z,79.05694099487245
2023-05-05T03:15:52.917Z,79.94459736375062
2023-05-05T03:18:50.443Z,79.90953337264396
2023-05-05T03:21:48.032Z,79.26495189270497
2023-05-05T03:24:49.644Z,80.10126096221268
2023-05-05T03:27:45.129Z,80.74640194963342
2023-05-05T03:30:42.701Z,81.02535721095478
2023-05-05T03:33:39.247Z,80.35021075351122
2023-05-05T03:36:35.838Z,80.25091424997707
2023-05-05T03:39:31.361Z,80.41585001261514
2023-05-05T03:42:26.902Z,79.76171349645716
2023-05-05T03:45:24.490Z,79.2959720920073
2023-05-05T03:48:20.048Z,79.82904597392775
2023-05-05T03:51:16.615Z,79.9328288140075
2023-05-05T03:54:13.216Z,80.03586966260761
2023-05-05T03:57:08.733Z,79.96159817112972
2023-05-05T04:00:05.386Z,80.23582978689299
2023-05-05T04:03:00.998Z,79.42824486384166
2023-05-05T04:05:56.421Z,79.59880793146088
2023-05-05T04:08:51.943Z,80.17221436376107
2023-05-05T04:11:47.518Z,80.22398092211303
2023-05-05T04:14:43.134Z,80.26443945583267
2023-05-05T04:17:38.727Z,80.28057618859135
2023-05-05T04:20:36.221Z,81.06390442290602
2023-05-05T04:23:32.057Z,80.86271110102955
2023-05-05T04:26:27.345Z,81.37565311028246
2023-05-05T04:29:22.926Z,81.6891519713644
2023-05-05T04:32:18.457Z,81.7337401105184
2023-05-05T04:35:14.046Z,81.77974602542149
2023-05-05T04:38:09.557Z,82.18070491749212
2023-05-05T04:41:06.176Z,82.33530308811113
2023-05-05T04:44:01.765Z,82.17959419061486
2023-05-05T04:46:57.538Z,81.31288327046889
2023-05-05T04:49:53.819Z,80.14066791980288
2023-05-05T04:52:51.415Z,79.74558610161554
2023-05-05T04:55:47.956Z,80.19172610346392
2023-05-05T04:58:43.502Z,78.99426229131818
2023-05-05T05:01:39.143Z,78.92698559504595
2023-05-05T05:04:34.642Z,78.15045352053893
2023-05-05T05:07:31.217Z,78.57335369377687
2023-05-05T05:10:27.750Z,79.89433380563234
2023-05-05T05:13:23.332Z,77.99992349787374
2023-05-05T05:16:18.922Z,77.3980776119833
2023-05-05T05:19:14.488Z,78.96787624649286
2023-05-05T05:22:09.980Z,78.23204665399705
2023-05-05T05:25:06.567Z,76.99876159294288
2023-05-05T05:28:10.138Z,77.37400134859972
2023-05-05T05:31:02.653Z,76.92950562172365
2023-05-05T05:33:58.207Z,76.45067286350155
2023-05-05T05:36:53.739Z,76.75482644515037
2023-05-05T05:39:52.354Z,76.28911873800162
2023-05-05T05:42:47.890Z,76.10332032748246
2023-05-05T05:45:43.503Z,74.72511366292079
2023-05-05T05:48:39.085Z,74.57045007799302
2023-05-05T05:51:34.610Z,75.22857250531385
2023-05-05T05:54:34.142Z,75.29003031584539
2023-05-05T05:57:30.733Z,74.0091197123472
2023-05-05T06:00:27.263Z,74.47488775689021
2023-05-05T06:03:23.104Z,74.11374837014975
2023-05-05T06:06:18.430Z,74.52499711013296
2023-05-05T06:09:13.945Z,74.22968663681212
2023-05-05T06:12:09.535Z,73.20862591133064
2023-05-05T06:15:06.046Z,73.836266682029
2023-05-05T06:18:01.676Z,72.65201650002928
2023-05-05T06:20:57.175Z,71.385951560641
2023-05-05T06:23:53.751Z,71.42003815217096
2023-05-05T06:26:49.285Z,69.93764935332808
2023-05-05T06:29:44.872Z,69.24366065481158
2023-05-05T06:32:40.476Z,69.22559120009578
2023-05-05T06:35:35.989Z,68.48552967565904
2023-05-05T06:38:32.526Z,67.01032118324159
2023-05-05T06:41:30.109Z,67.752598151663
2023-05-05T06:44:25.677Z,65.99553657209141
2023-05-05T06:47:22.218Z,66.23187977471652
2023-05-05T06:50:17.788Z,65.55616315429108
2023-05-05T06:53:13.340Z,64.11683598375389
2023-05-05T06:56:08.863Z,63.72220482836872
2023-05-05T06:59:04.452Z,64.57991248069963
2023-05-05T07:02:00.037Z,62.84122737967585
2023-05-05T07:04:55.683Z,61.638268683133255
2023-05-05T07:07:52.181Z,61.00145255169572
2023-05-05T07:10:47.761Z,60.829833487558446
2023-05-05T07:13:43.258Z,62.035279418377606
2023-05-05T07:16:38.887Z,60.717346148757734
2023-05-05T07:19:37.395Z,61.906922396872076
2023-05-05T07:22:32.920Z,60.34595957657734
2023-05-05T07:25:28.536Z,58.91078869359029
2023-05-05T07:28:24.101Z,58.715768587836166
2023-05-05T07:31:21.632Z,58.89180523489434
2023-05-05T07:34:17.166Z,57.82269083116743
2023-05-05T07:37:13.745Z,57.49706138733329
2023-05-05T07:40:10.678Z,56.08968033319229
2023-05-05T07:43:05.882Z,55.96830693981384
2023-05-05T07:46:01.498Z,54.67171303099791
2023-05-05T07:48:57.993Z,55.48067777176334
2023-05-05T07:51:55.529Z,54.88365216602042
2023-05-05T07:54:51.100Z,54.42853086320007
2023-05-05T07:57:47.677Z,53.075909547498945
2023-05-05T08:00:45.226Z,52.729119938265036
2023-05-05T08:03:40.898Z,53.218446552158014
2023-05-05T08:06:39.348Z,53.54177859330493
2023-05-05T08:09:35.902Z,52.80314272187101
2023-05-05T08:12:32.473Z,50.443784642367895
2023-05-05T08:15:28.030Z,51.44055443480797
2023-05-05T08:18:24.634Z,53.40216352740744
2023-05-05T08:21:21.153Z,51.98878044436933
2023-05-05T08:24:16.702Z,54.124162314454054
2023-05-05T08:27:13.274Z,52.242641841667094
2023-05-05T08:30:09.859Z,51.648784226896225
2023-05-05T08:33:05.430Z,51.80478630319729
2023-05-05T08:36:00.944Z,51.637546095990736
2023-05-05T08:38:56.529Z,51.350295052196756
2023-05-05T08:41:53.021Z,50.144084593076904
2023-05-05T08:44:48.632Z,48.73829634132325
2023-05-05T08:47:47.176Z,48.42237294298273
2023-05-05T08:50:47.713Z,47.804536407086864
2023-05-05T08:53:52.240Z,48.01352495896031
2023-05-05T08:56:50.868Z,46.39551104177827
2023-05-05T08:59:48.335Z,47.29032747063646
2023-05-05T09:02:47.048Z,47.35798640221153
2023-05-05T09:05:43.484Z,46.3267335114559
2023-05-05T09:08:41.050Z,45.59554012457858
2023-05-05T09:11:37.613Z,47.88067178566322
2023-05-05T09:14:33.205Z,47.10656795078967
2023-05-05T09:17:29.728Z,50.5950543475039
2023-05-05T09:20:34.246Z,50.5882259323281
2023-05-05T09:23:29.804Z,50.01094784783651
2023-05-05T09:26:32.389Z,49.220520077270926
2023-05-05T09:29:28.919Z,51.6576873608534
2023-05-05T09:32:47.518Z,51.495055568920165
2023-05-05T09:35:48.984Z,51.86641763222696
2023-05-05T09:38:52.520Z,52.05520272913661
2023-05-05T09:41:53.078Z,51.26954296644816
2023-05-05T09:44:48.645Z,50.21137557206315
2023-05-05T09:47:46.271Z,51.14043522597931
2023-05-05T09:50:43.849Z,50.97991250328145
2023-05-05T09:53:42.349Z,50.49417914763836
2023-05-05T09:56:39.873Z,47.86351779146512
2023-05-05T09:59:47.380Z,45.7998459253587
2023-05-05T10:02:47.973Z,42.49718193631345
2023-05-05T10:05:50.605Z,42.57623756113573
2023-05-05T10:08:51.040Z,39.05772327608006
2023-05-05T10:11:47.567Z,41.98402200501371
2023-05-05T10:14:50.068Z,38.46133019138481
2023-05-05T10:17:54.277Z,39.33156323841921
2023-05-05T10:20:55.194Z,38.26105474823729
2023-05-05T10:23:57.798Z,37.639418480322156
2023-05-05T10:26:57.338Z,38.30240520861834
2023-05-05T10:30:02.810Z,39.22487974720236
2023-05-05T10:33:22.211Z,40.26968617288934
2023-05-05T10:36:08.927Z,38.044453679015355
2023-05-05T10:39:09.538Z,37.329594096911684
2023-05-05T10:42:06.053Z,35.7285397742195
2023-05-05T10:45:04.578Z,38.19310368654227
2023-05-05T10:48:04.234Z,35.786947400730675
2023-05-05T10:51:11.698Z,36.80438188363612
2023-05-05T10:54:16.214Z,37.82803804413532
2023-05-05T10:57:14.789Z,38.34385568773786
2023-05-05T11:00:18.310Z,42.308565076291906
2023-05-05T11:03:19.948Z,41.819248918432834
2023-05-05T11:06:20.422Z,41.4262604688768
2023-05-05T11:09:20.958Z,41.75209794327804
2023-05-05T11:12:27.498Z,41.88630773492711
2023-05-05T11:15:37.022Z,43.32696928970022
2023-05-05T11:18:35.592Z,43.85301416709953
2023-05-05T11:21:44.915Z,40.098243765482195
2023-05-05T11:24:46.675Z,39.309011531091684
2023-05-05T11:27:54.192Z,37.99246151007442
2023-05-05T11:31:00.778Z,35.50746546801569
2023-05-05T11:34:07.265Z,33.46578828748452
2023-05-05T11:37:11.767Z,35.95544487818407
2023-05-05T11:40:19.340Z,33.889049326449495
2023-05-05T11:43:18.854Z,34.22161645821004
2023-05-05T11:46:16.473Z,32.80959240570199
2023-05-05T11:49:23.973Z,33.208397566437675
2023-05-05T11:52:27.544Z,33.47221948759786
2023-05-05T11:55:23.058Z,32.46042367508784
2023-05-05T11:58:18.650Z,30.526378942618567
2023-05-05T12:01:14.188Z,30.443880982712287
2023-05-05T12:04:11.912Z,30.7165493337243
2023-05-05T12:07:07.276Z,30.548962021744806
2023-05-05T12:10:02.856Z,28.29681440303198
2023-05-05T12:13:11.475Z,27.709420560511287
2023-05-05T12:16:08.978Z,32.62078378774053
2023-05-05T12:19:05.515Z,33.02009025660292
2023-05-05T12:22:01.074Z,32.58841512517476
2023-05-05T12:24:57.628Z,33.726648370440415
2023-05-05T12:27:54.137Z,32.85544801337418
2023-05-05T12:30:56.788Z,31.205551190325057
2023-05-05T12:33:53.301Z,33.793203870008895
2023-05-05T12:36:49.805Z,34.74209758391322
2023-05-05T12:39:45.375Z,34.83832907871483
2023-05-05T12:42:40.962Z,34.375387286943706
2023-05-05T12:45:37.556Z,34.53593319857661
2023-05-05T12:48:34.099Z,34.33978792518738
2023-05-05T12:51:35.654Z,36.63120866220894
2023-05-05T12:54:40.200Z,35.572534321365644
2023-05-05T12:57:46.714Z,32.7913532206161
2023-05-05T13:00:46.296Z,30.326132909666686
2023-05-05T13:03:46.819Z,30.49135110312796
2023-05-05T13:06:58.338Z,30.503696313299447
2023-05-05T13:10:00.892Z,31.327920882789375
2023-05-05T13:12:57.483Z,30.44016492985046
2023-05-05T13:15:53.048Z,28.421428865026385
2023-05-05T13:18:49.576Z,31.004217374545874
2023-05-05T13:21:45.102Z,30.002355229209286
2023-05-05T13:24:50.988Z,30.656065883963358
2023-05-05T13:27:41.245Z,29.33306042861644
2023-05-05T13:30:37.782Z,30.964619562628425
2023-05-05T13:33:35.372Z,32.713736079480974
2023-05-05T13:36:30.914Z,32.832819926968824
2023-05-05T13:39:26.445Z,30.721276841590946
2023-05-05T13:42:22.047Z,32.278466895418894
2023-05-05T13:45:19.581Z,32.79297188763535
2023-05-05T13:48:16.138Z,33.69044480083845
2023-05-05T13:51:11.749Z,35.154568196477115
2023-05-05T13:54:07.286Z,34.817233089651886
2023-05-05T13:57:02.824Z,35.58698715267502
2023-05-05T13:59:58.401Z,36.38134658167853
2023-05-05T14:02:54.974Z,36.288021962722546
2023-05-05T14:05:51.536Z,35.65206297987564
2023-05-05T14:08:47.065Z,36.91825702141302
2023-05-05T14:11:42.656Z,35.41792276641664
2023-05-05T14:14:38.196Z,35.25235701088489
2023-05-05T14:17:33.774Z,35.433860073981634
2023-05-05T14:20:29.384Z,34.43910319213637
2023-05-05T14:23:25.889Z,34.949985898929704
2023-05-05T14:26:21.466Z,34.02895968611343
2023-05-05T14:29:18.048Z,34.04819679173204
2023-05-05T14:32:13.652Z,35.449017135853666
2023-05-05T14:35:09.263Z,35.163821262359015
2023-05-05T14:38:04.744Z,34.50555373779626
2023-05-05T14:41:02.224Z,32.02607582000747
2023-05-05T14:43:58.804Z,34.63106962551939
2023-05-05T14:46:54.367Z,34.74709254334712
2023-05-05T14:49:50.947Z,34.70599960527906
2023-05-05T14:52:47.466Z,36.07767882454166
2023-05-05T14:55:44.051Z,36.270636667989
2023-05-05T14:58:39.614Z,35.8596109793269
2023-05-05T15:01:36.229Z,35.90725174915786
2023-05-05T15:04:31.724Z,37.08251166180761
2023-05-05T15:07:29.278Z,35.994052574312505
2023-05-05T15:10:25.833Z,36.519053245656416
2023-05-05T15:13:22.444Z,36.069409979764735
2023-05-05T15:16:17.980Z,37.38733186231326
2023-05-05T15:19:13.481Z,35.07548755132006
2023-05-05T15:22:09.047Z,34.771211040465346
2023-05-05T15:25:08.987Z,32.73669428734907
2023-05-05T15:28:05.201Z,27.403129426567144
2023-05-05T15:31:01.791Z,29.17994675570235
2023-05-05T15:33:57.305Z,25.383815338238275
2023-05-05T15:36:56.868Z,23.108199497307705
2023-05-05T15:39:54.406Z,22.297499571434898
2023-05-05T15:42:50.998Z,21.04407462859384
2023-05-05T15:45:46.578Z,21.479687387117405
2023-05-05T15:48:42.108Z,20.489502852970713
2023-05-05T15:51:37.830Z,20.41271412896956
2023-05-05T15:54:33.244Z,20.46538664268729
2023-05-05T15:57:28.798Z,20.538644069391474
2023-05-05T16:00:25.350Z,20.132028701219784
2023-05-05T16:03:20.973Z,20.190243497698603
2023-05-05T16:06:16.477Z,22.429145245529554
2023-05-05T16:09:12.010Z,25.344987893724035
2023-05-05T16:12:08.568Z,26.324276101495926
2023-05-05T16:15:05.144Z,27.23380757287201
2023-05-05T16:18:00.718Z,24.090665802613344
2023-05-05T16:20:56.276Z,24.18035105239456
2023-05-05T16:23:51.835Z,21.845560466830115
2023-05-05T16:26:48.355Z,21.86014789596369
2023-05-05T16:29:43.962Z,22.273695453345894
2023-05-05T16:32:39.518Z,22.39063209156205
2023-05-05T16:35:36.107Z,22.27704785883732
2023-05-05T16:38:31.627Z,26.433924443953778
2023-05-05T16:41:28.222Z,27.642545368319805
2023-05-05T16:44:28.775Z,29.101798693636976
2023-05-05T16:47:25.377Z,29.656817159250284
2023-05-05T16:50:20.842Z,30.784669121413632
2023-05-05T16:53:16.418Z,32.551296290344375
2023-05-05T16:56:12.967Z,34.164789867138715
2023-05-05T16:59:08.583Z,35.3615240784046
2023-05-05T17:02:06.112Z,36.27659969283594
2023-05-05T17:05:01.694Z,36.06522495217725
2023-05-05T17:07:57.235Z,36.26734156688643
2023-05-05T17:10:52.796Z,36.97420357850505
2023-05-05T17:13:48.293Z,38.2701533122535
2023-05-05T17:16:43.915Z,38.779230632372084
2023-05-05T17:19:39.497Z,39.63629827336523
2023-05-05T17:22:36.045Z,40.42297595706958
2023-05-05T17:25:31.607Z,41.45267925978357
2023-05-05T17:28:27.144Z,42.15677673314667
2023-05-05T17:31:22.778Z,42.144314052105614
2023-05-05T17:34:18.297Z,42.149579554345635
2023-05-05T17:37:13.861Z,43.22733141169132
2023-05-05T17:40:10.424Z,43.373281864363136
2023-05-05T17:43:06.959Z,44.40954967259081
2023-05-05T17:46:02.636Z,46.08235124166247
2023-05-05T17:48:58.114Z,46.41849183683048
2023-05-05T17:51:53.598Z,46.72663805446045
2023-05-05T17:54:50.236Z,45.91679698543648
2023-05-05T17:57:46.734Z,46.42504394984498
2023-05-05T18:00:42.326Z,46.56925557013963
2023-05-05T18:03:40.679Z,47.09786340242329
2023-05-05T18:06:36.408Z,48.0091556634784
2023-05-05T18:09:32.017Z,49.47474633172536
2023-05-05T18:12:27.511Z,49.68079731884173
2023-05-05T18:15:23.097Z,49.66364756795105
2023-05-05T18:18:18.709Z,49.97983768646232
2023-05-05T18:21:15.242Z,50.33755842503194
2023-05-05T18:24:19.490Z,51.17716647686994
2023-05-05T18:27:12.349Z,51.13735775185759
2023-05-05T18:30:08.908Z,51.84138473127861
2023-05-05T18:33:04.560Z,52.276345063910256
2023-05-05T18:36:01.075Z,53.86391270370975
2023-05-05T18:38:56.572Z,55.482720901205035
2023-05-05T18:41:53.149Z,55.52650696477282
2023-05-05T18:44:49.712Z,54.62872136423689
2023-05-05T18:47:45.336Z,54.220593501515246
2023-05-05T18:50:41.828Z,54.62907912340736
2023-05-05T18:53:37.395Z,55.35899282853354
2023-05-05T18:56:32.979Z,55.26442997818331
2023-05-05T18:59:28.486Z,55.52416346201778
2023-05-05T19:02:24.065Z,55.83349289728145
2023-05-05T19:05:20.656Z,57.086932726851394
2023-05-05T19:08:16.202Z,58.26144770043691
2023-05-05T19:11:14.804Z,58.91637012825266
2023-05-05T19:14:11.278Z,59.087959212360026
2023-05-05T19:17:06.943Z,58.09576626229563
2023-05-05T19:20:02.391Z,57.9000660482561
2023-05-05T19:23:02.979Z,58.146308997778654
2023-05-05T19:25:58.545Z,58.088848687856604
2023-05-05T19:28:55.117Z,58.053868402438454
2023-05-05T19:31:50.873Z,59.20482266970158
2023-05-05T19:34:46.232Z,58.72247978485406
2023-05-05T19:37:41.797Z,59.68827478232578
2023-05-05T19:40:38.303Z,59.59725508671133
2023-05-05T19:43:33.905Z,59.85421484992896
2023-05-05T19:46:29.575Z,59.961269193669764
2023-05-05T19:49:25.003Z,60.95096388188381
2023-05-05T19:52:22.684Z,60.6290273044741
2023-05-05T19:55:18.159Z,60.75733783049536
2023-05-05T19:58:13.704Z,60.17513887937367
2023-05-05T20:01:09.342Z,60.47094111654829
2023-05-05T20:04:04.802Z,60.573539144382316
2023-05-05T20:07:00.380Z,60.853905925734026
2023-05-05T20:09:56.178Z,60.75543026723651
2023-05-05T20:12:53.575Z,60.70841950089735
2023-05-05T20:15:51.069Z,60.67345169008366
2023-05-05T20:18:46.666Z,61.239917528311636
2023-05-05T20:21:42.199Z,61.75934915040784
2023-05-05T20:24:38.786Z,60.872283203482084
2023-05-05T20:27:36.016Z,60.726639336361835
2023-05-05T20:30:32.863Z,61.276425688088345
2023-05-05T20:33:29.457Z,61.97802000741107
2023-05-05T20:36:26.009Z,62.27047932909958
2023-05-05T20:39:23.510Z,62.43424181793738
2023-05-05T20:42:19.121Z,62.567446088478796
2023-05-05T20:45:15.685Z,62.25525955245999
2023-05-05T20:48:11.630Z,62.257286211071694
2023-05-05T20:51:08.787Z,63.05944203443441
2023-05-05T20:54:05.417Z,63.21566535466376
2023-05-05T20:57:02.921Z,62.528019304204236
2023-05-05T20:59:59.460Z,62.74989834676397
2023-05-05T21:02:57.261Z,63.00569367937033
2023-05-05T21:05:52.632Z,62.76240866949155
2023-05-05T21:08:48.155Z,62.79871831269071
2023-05-05T21:11:43.684Z,63.397109160347476
2023-05-05T21:14:42.228Z,63.987209973587895
2023-05-05T21:17:37.844Z,63.830246502002716
2023-05-05T21:20:35.396Z,64.35744484043505
2023-05-05T21:23:30.942Z,65.09565367144864
2023-05-05T21:26:26.528Z,65.1522875712237
2023-05-05T21:29:24.065Z,65.6688326341599
2023-05-05T21:32:19.731Z,65.29416795052313
2023-05-05T21:35:15.186Z,65.52050900445175
2023-05-05T21:38:11.750Z,66.5822024706284
2023-05-05T21:41:07.304Z,65.66051225424401
2023-05-05T21:44:02.858Z,65.0498185540786
2023-05-05T21:46:59.437Z,65.61566433404192
2023-05-05T21:49:54.992Z,66.4523930776895
2023-05-05T21:52:51.514Z,66.19445082100414
2023-05-05T21:55:48.067Z,65.83437210311502
2023-05-05T21:58:44.638Z,65.95017653017995
2023-05-05T22:01:40.330Z,65.78510034181491
2023-05-05T22:04:35.776Z,64.91949069886556
2023-05-05T22:07:33.054Z,65.26838751318233
2023-05-05T22:10:28.930Z,65.73078379481248
2023-05-05T22:13:24.485Z,66.26343112060815
2023-05-05T22:16:21.089Z,65.57112783965465
2023-05-05T22:19:17.583Z,65.80442942333154
2023-05-05T22:22:13.122Z,65.62246882861766
2023-05-05T22:25:09.897Z,65.68424221433303
2023-05-05T22:28:05.269Z,66.63300038715408
2023-05-05T22:31:01.803Z,66.96080327571532
2023-05-05T22:33:58.390Z,66.50691979254319
2023-05-05T22:36:55.963Z,66.0623582785552
2023-05-05T22:39:52.485Z,67.1275689935631
2023-05-05T22:42:48.033Z,66.53591301235774
2023-05-05T22:45:45.629Z,66.6406375862575
2023-05-05T22:48:41.149Z,67.68461170810063
2023-05-05T22:51:37.753Z,69.73643277495702
2023-05-05T22:54:33.289Z,70.898086695913
2023-05-05T22:57:28.842Z,70.74346209599993
2023-05-05T23:00:25.441Z,71.82159147979074
2023-05-05T23:03:20.969Z,73.0322643455883
2023-05-05T23:06:16.529Z,72.57044704515853
2023-05-05T23:09:13.099Z,73.10565106311459
2023-05-05T23:12:08.637Z,73.53975717690234
2023-05-05T23:15:05.276Z,73.68941397047743
2023-05-05T23:18:00.821Z,73.20786260247128
2023-05-05T23:20:56.354Z,72.04061762536098
2023-05-05T23:23:51.932Z,70.76052740993683
2023-05-05T23:26:47.477Z,70.91827498758828
2023-05-05T23:29:43.026Z,70.56324190942182
2023-05-05T23:32:38.571Z,70.78481360286658
2023-05-05T23:35:34.100Z,70.46607902957562
2023-05-05T23:38:29.714Z,69.92633971409704
2023-05-05T23:41:25.273Z,70.01776452970208
2023-05-05T23:44:20.823Z,70.60834786502174
2023-05-05T23:47:16.407Z,70.98774728912598
2023-05-05T23:50:11.952Z,69.62041703688281
2023-05-05T23:53:07.553Z,69.71820882094724
2023-05-05T23:56:03.030Z,69.89218940210483
2023-05-05T23:58:58.610Z,70.14863264435361
